• Join FlightAware (Why Join?)
  • Login
  • US Flag 
07:56PM EDT


 

Airport Tracker/Info


-or-


 

Live Flight TrackerFlight Track Log ✈ N62379 ✈ 01-May-2013 ✈ KMDT - KCHS

Flight Track Log - Related Links

Times and Time Zones

All times are in EDT time to prevent confusion due to time zone crossing. See the N62379 flight status page for this flight to view local times or setup timezone preferences in your user account.

Time Position Orientation Groundspeed Altitude Reporting Facility
EDT Latitude Longitude Course Direction KTS MPH feet Rate Location/Type
04:12PM 39.9761 -77.3378 259° West 180 207 6,000  Level Washington Center
04:13PM 39.9669 -77.3997 259° West 180 207 6,000  Level Washington Center
04:14PM 39.9556 -77.4617 257° West 180 207 6,000  Level Washington Center
04:15PM 39.9419 -77.5208 247° West 180 207 6,000  Level Washington Center
04:16PM 39.9061 -77.5550 216° Southwest 171 197 6,000  Level Washington Center
04:17PM 39.8681 -77.5864 212° Southwest 164 189 6,000 -60 Level Washington Center
04:18PM 39.8219 -77.6042 196° South 164 189 5,900  Descending Washington Center
04:19PM 39.7797 -77.6272 203° Southwest 164 189 6,000  Climbing Washington Center
04:20PM 39.7400 -77.6506 204° Southwest 169 194 6,000  Level Washington Center
04:21PM 39.6958 -77.6733 202° Southwest 169 194 6,000  Level Washington Center
04:22PM 39.6558 -77.6967 204° Southwest 169 194 6,000  Level Washington Center
04:23PM 39.6136 -77.7194 203° Southwest 169 194 6,000  Level Washington Center
04:24PM 39.5714 -77.7453 205° Southwest 169 194 6,000  Level Washington Center
04:25PM 39.5272 -77.7681 202° Southwest 169 194 6,000  Level Washington Center
04:26PM 39.4872 -77.7911 204° Southwest 169 194 6,000  Level Washington Center
04:27PM 39.4000 -77.8333 201° Southwest 163 188 6,000  Level Potomac TRACON
04:28PM 39.3667 -77.8500 201° Southwest 166 191 6,000 -60 Level Potomac TRACON
04:29PM 39.3167 -77.8667 194° South 159 183 5,900  Descending Potomac TRACON
04:30PM 39.2833 -77.8833 201° Southwest 160 184 6,000  Climbing Potomac TRACON
04:31PM 39.2333 -77.9000 194° South 163 188 5,900  Descending Potomac TRACON
04:32PM 39.2000 -77.9167 201° Southwest 160 184 6,000  Climbing Potomac TRACON
04:33PM 39.1500 -77.9333 194° South 165 190 6,000 -60 Level Potomac TRACON
04:34PM 39.1167 -77.9500 201° Southwest 162 186 5,900  Descending Potomac TRACON
04:35PM 39.0667 -77.9667 195° South 160 184 6,000  Climbing Potomac TRACON
04:36PM 39.0167 -77.9833 195° South 162 186 6,000 -60 Level Potomac TRACON
04:37PM 38.9833 -78.0000 201° Southwest 161 185 5,900  Descending Potomac TRACON
04:38PM 38.9333 -78.0167 195° South 159 183 6,000  Climbing Potomac TRACON
04:39PM 38.9000 -78.0333 201° Southwest 162 186 5,900  Descending Potomac TRACON
04:40PM 38.8500 -78.0500 195° South 160 184 6,000  Climbing Potomac TRACON
04:41PM 38.8000 -78.0667 195° South 162 186 6,000  Level Potomac TRACON
04:42PM 38.7667 -78.0833 201° Southwest 161 185 6,000 -60 Level Potomac TRACON
04:43PM 38.7167 -78.0833 180° South 163 188 5,900  Descending Potomac TRACON
04:44PM 38.6833 -78.1000 201° Southwest 162 186 6,000  Climbing Potomac TRACON
04:46PM 38.6000 -78.1333 197° South 163 188 6,000  Level Potomac TRACON
04:47PM 38.5500 -78.1500 195° South 164 189 6,000  Level Potomac TRACON
04:48PM 38.5000 -78.1667 195° South 161 185 6,000 -60 Level Potomac TRACON
04:49PM 38.4667 -78.1833 201° Southwest 166 191 5,900  Descending Potomac TRACON
04:50PM 38.4167 -78.2000 195° South 157 181 6,000  Climbing Potomac TRACON
04:51PM 38.3833 -78.2167 201° Southwest 162 186 6,000  Level Potomac TRACON
04:52PM 38.3333 -78.2333 195° South 156 180 6,000  Level Potomac TRACON
04:53PM 38.3000 -78.2500 201° Southwest 164 189 6,000  Level Potomac TRACON
04:54PM 38.2500 -78.2667 195° South 161 185 6,000  Level Potomac TRACON
04:55PM 38.2000 -78.2833 195° South 159 183 6,000  Level Potomac TRACON
04:56PM 38.1667 -78.2833 180° South 165 190 6,000  Level Potomac TRACON
04:57PM 38.1333 -78.3000 201° Southwest 165 190 6,000 -60 Level Potomac TRACON
04:58PM 38.0833 -78.3167 195° South 164 189 5,900  Descending Potomac TRACON
04:59PM 38.0333 -78.3333 195° South 165 190 6,000  Climbing Potomac TRACON
05:00PM 38.0000 -78.3500 202° Southwest 168 193 6,000  Level Potomac TRACON
05:01PM 37.9500 -78.3667 195° South 167 192 6,000  Level Potomac TRACON
05:02PM 37.9000 -78.3833 195° South 168 193 6,000  Level Potomac TRACON
05:03PM 37.8667 -78.4000 202° Southwest 170 196 6,000  Level Potomac TRACON
05:05PM 37.8103 -78.4228 198° South 164 189 6,000  Level Washington Center
05:06PM 37.7642 -78.4367 193° South 164 189 6,000  Level Washington Center
05:07PM 37.7222 -78.4508 195° South 164 189 6,000  Level Washington Center
05:08PM 37.6800 -78.4650 195° South 164 189 6,000  Level Washington Center
05:09PM 37.6400 -78.4792 196° South 164 189 6,000  Level Washington Center
05:10PM 37.6000 -78.4933 196° South 164 189 6,000 -60 Level Washington Center
05:11PM 37.5581 -78.5103 198° South 164 189 5,900 -60 Descending Washington Center
05:12PM 37.5139 -78.5217 192° South 164 189 5,900  Level Washington Center
05:13PM 37.4675 -78.5381 196° South 164 189 6,000  Climbing Washington Center
05:14PM 37.4256 -78.5547 198° South 164 189 6,000 -60 Level Washington Center
05:15PM 37.3814 -78.5689 194° South 164 189 5,900  Descending Washington Center
05:16PM 37.3392 -78.5828 195° South 164 189 6,000  Climbing Washington Center
05:17PM 37.2992 -78.5969 196° South 164 189 6,000 -60 Level Washington Center
05:18PM 37.2550 -78.6133 196° South 164 189 5,900  Descending Washington Center
05:19PM 37.2108 -78.6275 194° South 164 189 6,000  Climbing Washington Center
05:20PM 37.1667 -78.6439 196° South 164 189 6,000  Level Washington Center
05:21PM 37.1183 -78.6603 195° South 164 189 6,000  Level Washington Center
05:22PM 37.0761 -78.6742 195° South 164 189 6,000  Level Washington Center
05:23PM 37.0319 -78.6906 197° South 164 189 6,000  Level Washington Center
05:24PM 36.9878 -78.7044 194° South 164 189 6,000  Level Washington Center
05:25PM 36.9436 -78.7183 194° South 164 189 6,000 -60 Level Washington Center
05:26PM 36.9056 -78.7322 196° South 164 189 5,900 -60 Descending Washington Center
05:27PM 36.8614 -78.7461 194° South 164 189 5,900  Level Washington Center
05:28PM 36.8172 -78.7622 196° South 164 189 5,900  Level Washington Center
05:29PM 36.7750 -78.7789 198° South 164 189 5,900  Level Washington Center
05:30PM 36.7244 -78.7950 194° South 164 189 5,900  Level Washington Center
05:31PM 36.6803 -78.8111 196° South 164 189 5,900  Level Washington Center
05:32PM 36.6339 -78.8300 198° South 169 194 5,900  Level Washington Center
05:33PM 36.5897 -78.8436 194° South 169 194 5,900  Level Washington Center
05:33PM 36.5436 -78.8547 191° South 167 192 5,900  Level Washington Center
05:35PM 36.4992 -78.8708 196° South 164 189 5,900  Level Washington Center
05:35PM 36.4761 -78.8803 198° South 169 194 5,900  Level Washington Center
05:36PM 36.4528 -78.8894 198° South 169 194 5,900  Level Washington Center
05:36PM 36.4339 -78.8939 191° South 169 194 5,900  Level Washington Center
05:37PM 36.4086 -78.9033 197° South 169 194 5,900  Level Washington Center
05:37PM 36.3878 -78.9075 189° South 171 197 5,900  Level Washington Center
05:38PM 36.3603 -78.9167 195° South 169 194 5,900  Level Washington Center
05:38PM 36.3456 -78.9211 194° South 173 199 5,900  Level Washington Center
05:39PM 36.3181 -78.9303 195° South 169 194 5,900  Level Washington Center
05:39PM 36.2992 -78.9397 202° Southwest 173 199 5,900  Level Washington Center
05:40PM 36.2675 -78.9489 193° South 169 194 5,900  Level Washington Center
05:40PM 36.2528 -78.9583 207° Southwest 173 199 5,900  Level Washington Center
05:41PM 36.2256 -78.9625 187° South 169 194 5,900  Level Washington Center
05:41PM 36.2128 -78.9722 212° Southwest 171 197 5,900  Level Washington Center
05:42PM 36.1769 -78.9808 191° South 169 194 5,900 -120 Level Washington Center
05:42PM 36.1664 -78.9881 209° Southwest 168 193 5,800  Descending Washington Center
05:43PM 36.1369 -78.9919 186° South 164 189 5,900 60 Climbing Washington Center
05:43PM 36.1136 -79.0039 202° Southwest 166 191 5,900  Level Washington Center
05:44PM 36.0758 -79.0150 193° South 168 193 5,900  Level Washington Center
05:45PM 36.0253 -79.0308 194° South 167 192 5,900  Level Washington Center
05:46PM 35.9767 -79.0494 197° South 169 194 5,900  Level Washington Center
05:47PM 35.9239 -79.0700 198° South 167 192 5,900  Level Washington Center
05:48PM 35.8906 -79.0764 189° South 167 192 5,900  Level Washington Center
05:49PM 35.8483 -79.0925 197° South 169 194 5,900  Level Washington Center
05:50PM 35.8019 -79.1083 195° South 170 196 5,900  Level Washington Center
05:51PM 35.7533 -79.1242 195° South 170 196 5,900  Level Washington Center
05:53PM 35.6830 -79.1453 194° South  Level FlightAware Approximate
06:00PM 35.3690 -79.2418 195° South  Level FlightAware Approximate
06:01PM 35.3243 -79.2560 195° South  Level FlightAware Approximate
06:02PM 35.2796 -79.2702 195° South  Level FlightAware Approximate
06:03PM 35.2349 -79.2845 195° South  Level FlightAware Approximate
06:04PM 35.1901 -79.2987 195° South  Level FlightAware Approximate
06:05PM 35.1454 -79.3128 195° South  Level FlightAware Approximate
06:06PM 35.1007 -79.3270 195° South  Level FlightAware Approximate
06:07PM 35.0560 -79.3411 195° South  Level FlightAware Approximate
06:08PM 35.0112 -79.3552 195° South  Level FlightAware Approximate
06:09PM 34.9665 -79.3694 194° South  Level FlightAware Approximate
06:10PM 34.9218 -79.3835 194° South  Level FlightAware Approximate
06:11PM 34.8770 -79.3975 194° South  Level FlightAware Approximate
06:12PM 34.8323 -79.4116 194° South  Level FlightAware Approximate
06:13PM 34.7875 -79.4257 194° South  Level FlightAware Approximate
06:14PM 34.7428 -79.4397 194° South  Level FlightAware Approximate
06:15PM 34.6981 -79.4537 194° South  Level FlightAware Approximate
06:16PM 34.6533 -79.4677 194° South  Level FlightAware Approximate
06:17PM 34.6086 -79.4817 194° South  Level FlightAware Approximate
06:18PM 34.5638 -79.4957 194° South  Level FlightAware Approximate
06:19PM 34.5191 -79.5099 195° South  Level FlightAware Approximate
06:20PM 34.4745 -79.5242 195° South  Level FlightAware Approximate
06:21PM 34.4298 -79.5385 195° South  Level FlightAware Approximate
06:22PM 34.3851 -79.5528 195° South  Level FlightAware Approximate
06:23PM 34.3405 -79.5671 195° South  Level FlightAware Approximate
06:24PM 34.2958 -79.5814 195° South  Level FlightAware Approximate
06:25PM 34.2511 -79.5956 195° South  Level FlightAware Approximate
06:26PM 34.2064 -79.6098 195° South  Level FlightAware Approximate
06:27PM 34.1617 -79.6241 195° South  Level FlightAware Approximate
06:28PM 34.1171 -79.6383 195° South  Level FlightAware Approximate
06:29PM 34.0724 -79.6525 195° South  Level FlightAware Approximate
06:30PM 34.0277 -79.6666 195° South  Level FlightAware Approximate
06:31PM 33.9830 -79.6808 195° South  Level FlightAware Approximate
06:32PM 33.9383 -79.6949 195° South  Level FlightAware Approximate
06:33PM 33.8936 -79.7091 195° South  Level FlightAware Approximate
06:34PM 33.8489 -79.7232 195° South  Level FlightAware Approximate
06:35PM 33.8043 -79.7373 195° South  Level FlightAware Approximate
06:36PM 33.7596 -79.7517 195° South  Level FlightAware Approximate
06:37PM 33.7150 -79.7660 195° South  Level FlightAware Approximate
06:38PM 33.6703 -79.7803 195° South  Level FlightAware Approximate
06:39PM 33.6257 -79.7946 195° South  Level FlightAware Approximate
06:40PM 33.5811 -79.8089 195° South  Level FlightAware Approximate
06:41PM 33.5364 -79.8232 195° South  Level FlightAware Approximate
06:42PM 33.4918 -79.8374 195° South  Level FlightAware Approximate
06:43PM 33.4471 -79.8517 195° South  Level FlightAware Approximate
06:44PM 33.4025 -79.8659 195° South  Level FlightAware Approximate
06:45PM 33.3579 -79.8807 196° South  Level FlightAware Approximate
06:46PM 33.3134 -79.8955 196° South  Level FlightAware Approximate
06:47PM 33.2689 -79.9104 196° South  Level FlightAware Approximate
06:48PM 33.2255 -79.9289 203° Southwest  Level FlightAware Approximate
06:49PM 33.1828 -79.9501 191° South  Level FlightAware Approximate
06:50PM 33.1375 -79.9606 191° South  Level FlightAware Approximate
06:51PM 33.0921 -79.9711 191° South  Level FlightAware Approximate
06:52PM 33.0468 -79.9816 191° South  Level FlightAware Approximate
06:53PM 33.0014 -79.9920 191° South  Level FlightAware Approximate
06:54PM 32.9564 -80.0041 199° South  Level FlightAware Approximate
06:55PM 32.9126 -80.0216 199° South  Level FlightAware Approximate
06:56PM 32.8986 -80.0405 199° South  Level Estimated
06:57PM 32.8986 -80.0405 199° South  Level Estimated
06:58PM 32.8986 -80.0405 199° South  Level Estimated
06:59PM 32.8986 -80.0405 199° South  Level Estimated
07:00PM 32.8986 -80.0405 199° South  Level Estimated
07:01PM 32.8986 -80.0405 199° South  Level Estimated
07:02PM 32.8986 -80.0405 199° South  Level Estimated
07:03PM 32.8986 -80.0405 199° South  Level Estimated
07:04PM 32.8986 -80.0405 199° South  Level Estimated
07:05PM 32.8986 -80.0405 199° South  Level Estimated
07:06PM 32.8986 -80.0405 199° South  Level Estimated
07:07PM 32.8986 -80.0405 199° South  Level Estimated
07:08PM 32.8986 -80.0405 199° South  Level Estimated
07:09PM 32.8986 -80.0405 199° South  Level Estimated
07:10PM 32.8986 -80.0405 199° South  Level Estimated